createdAt,value
2023-04-21T00:00:30.481Z,13.00
2023-04-21T00:02:57.251Z,13.10
2023-04-21T00:05:24.334Z,14.00
2023-04-21T00:07:51.264Z,14.00
2023-04-21T00:10:19.164Z,13.95
2023-04-21T00:12:45.735Z,13.33
2023-04-21T00:15:12.313Z,14.40
2023-04-21T00:17:39.081Z,14.02
2023-04-21T00:20:07.210Z,13.93
2023-04-21T00:22:33.773Z,14.55
2023-04-21T00:25:00.568Z,14.13
2023-04-21T00:27:28.494Z,14.55
2023-04-21T00:29:55.096Z,13.80
2023-04-21T00:32:21.655Z,13.98
2023-04-21T00:34:48.226Z,14.45
2023-04-21T00:37:14.957Z,14.60
2023-04-21T00:39:41.555Z,14.15
2023-04-21T00:42:08.140Z,15.18
2023-04-21T00:44:36.154Z,14.57
2023-04-21T00:47:03.374Z,15.75
2023-04-21T00:49:30.128Z,15.00
2023-04-21T00:51:56.887Z,15.75
2023-04-21T00:54:24.760Z,15.65
2023-04-21T00:56:51.408Z,14.32
2023-04-21T00:59:18.190Z,13.82
2023-04-21T01:01:46.438Z,14.13
2023-04-21T01:04:13.011Z,14.55
2023-04-21T01:06:41.791Z,14.38
2023-04-21T01:09:08.476Z,14.93
2023-04-21T01:11:36.772Z,14.23
2023-04-21T01:14:03.372Z,14.63
2023-04-21T01:16:30.066Z,13.52
2023-04-21T01:18:58.345Z,14.98
2023-04-21T01:21:25.647Z,15.00
2023-04-21T01:23:53.751Z,14.65
2023-04-21T01:26:21.461Z,13.70
2023-04-21T01:28:48.673Z,15.70
2023-04-21T01:31:15.786Z,14.45
2023-04-21T01:33:42.363Z,14.38
2023-04-21T01:36:10.077Z,16.00
2023-04-21T01:38:38.617Z,14.67
2023-04-21T01:41:07.483Z,15.38
2023-04-21T01:43:35.313Z,13.68
2023-04-21T01:46:02.135Z,15.60
2023-04-21T01:48:28.790Z,15.02
2023-04-21T01:50:55.388Z,14.77
2023-04-21T01:53:22.161Z,14.50
2023-04-21T01:55:48.901Z,15.52
2023-04-21T01:58:16.873Z,15.27
2023-04-21T02:00:43.431Z,14.68
2023-04-21T02:03:10.308Z,15.00
2023-04-21T02:05:36.994Z,14.75
2023-04-21T02:08:03.859Z,15.63
2023-04-21T02:10:30.544Z,14.35
2023-04-21T02:12:57.191Z,14.38
2023-04-21T02:15:25.252Z,14.60
2023-04-21T02:17:52.266Z,13.90
2023-04-21T02:20:18.924Z,14.43
2023-04-21T02:22:45.466Z,14.55
2023-04-21T02:25:12.171Z,14.48
2023-04-21T02:27:38.750Z,14.37
2023-04-21T02:30:07.812Z,13.38
2023-04-21T02:32:35.799Z,13.57
2023-04-21T02:35:02.512Z,15.05
2023-04-21T02:37:29.173Z,15.35
2023-04-21T02:39:55.708Z,14.53
2023-04-21T02:42:23.569Z,14.05
2023-04-21T02:44:50.295Z,14.48
2023-04-21T02:47:16.835Z,14.15
2023-04-21T02:49:44.885Z,14.38
2023-04-21T02:52:11.474Z,14.73
2023-04-21T02:54:38.026Z,15.18
2023-04-21T02:57:04.752Z,14.43
2023-04-21T02:59:31.373Z,14.35
2023-04-21T03:01:57.957Z,13.90
2023-04-21T03:04:24.665Z,13.53
2023-04-21T03:06:53.234Z,12.95
2023-04-21T03:09:20.157Z,13.00
2023-04-21T03:11:46.872Z,13.40
2023-04-21T03:14:13.510Z,13.95
2023-04-21T03:16:40.060Z,13.20
2023-04-21T03:19:06.682Z,13.45
2023-04-21T03:21:33.293Z,12.93
2023-04-21T03:24:01.160Z,13.40
2023-04-21T03:26:27.909Z,13.10
2023-04-21T03:28:54.510Z,13.70
2023-04-21T03:31:21.292Z,12.75
2023-04-21T03:33:47.867Z,13.30
2023-04-21T03:36:14.412Z,13.73
2023-04-21T03:38:41.129Z,13.00
2023-04-21T03:41:09.037Z,13.20
2023-04-21T03:43:35.613Z,13.88
2023-04-21T03:46:02.718Z,13.65
2023-04-21T03:48:29.308Z,14.23
2023-04-21T03:50:55.907Z,14.35
2023-04-21T03:53:22.462Z,14.20
2023-04-21T03:55:50.181Z,14.20
2023-04-21T03:58:18.129Z,13.27
2023-04-21T04:00:44.662Z,13.55
2023-04-21T04:03:11.356Z,13.60
2023-04-21T04:05:38.360Z,13.00
2023-04-21T04:08:05.688Z,13.23
2023-04-21T04:10:32.278Z,13.40
2023-04-21T04:12:59.223Z,13.27
2023-04-21T04:15:27.198Z,13.32
2023-04-21T04:17:53.909Z,14.53
2023-04-21T04:20:20.561Z,13.35
2023-04-21T04:22:47.389Z,13.23
2023-04-21T04:25:14.071Z,12.55
2023-04-21T04:27:40.859Z,13.75
2023-04-21T04:30:08.362Z,13.53
2023-04-21T04:32:36.353Z,13.82
2023-04-21T04:35:03.009Z,13.57
2023-04-21T04:37:29.460Z,13.85
2023-04-21T04:39:56.230Z,12.95
2023-04-21T04:42:22.810Z,13.57
2023-04-21T04:44:52.762Z,12.85
2023-04-21T04:47:19.683Z,13.60
2023-04-21T04:49:47.593Z,12.52
2023-04-21T04:52:14.177Z,12.85
2023-04-21T04:54:40.789Z,12.40
2023-04-21T04:57:07.597Z,13.00
2023-04-21T04:59:34.295Z,12.10
2023-04-21T05:02:00.948Z,12.73
2023-04-21T05:04:28.098Z,13.15
2023-04-21T05:06:56.513Z,12.57
2023-04-21T05:09:23.057Z,13.00
2023-04-21T05:11:49.634Z,12.65
2023-04-21T05:14:16.591Z,12.25
2023-04-21T05:16:43.878Z,12.52
2023-04-21T05:19:10.473Z,12.77
2023-04-21T05:21:37.227Z,12.10
2023-04-21T05:24:05.599Z,11.48
2023-04-21T05:26:32.225Z,11.65
2023-04-21T05:28:58.810Z,11.00
2023-04-21T05:31:25.940Z,10.73
2023-04-21T05:33:52.686Z,9.70
2023-04-21T05:36:19.328Z,10.48
2023-04-21T05:38:46.324Z,9.95
2023-04-21T05:41:14.402Z,10.40
2023-04-21T05:43:41.119Z,10.07
2023-04-21T05:46:09.763Z,10.70
2023-04-21T05:48:36.833Z,10.45
2023-04-21T05:51:08.582Z,10.38
2023-04-21T05:53:35.317Z,11.48
2023-04-21T05:56:02.237Z,11.13
2023-04-21T05:58:30.278Z,10.90
2023-04-21T06:00:56.852Z,10.90
2023-04-21T06:03:23.702Z,11.40
2023-04-21T06:05:54.098Z,11.55
2023-04-21T06:08:20.971Z,11.07
2023-04-21T06:10:47.669Z,11.10
2023-04-21T06:13:14.328Z,10.88
2023-04-21T06:15:42.320Z,10.68
2023-04-21T06:18:09.041Z,11.05
2023-04-21T06:20:35.791Z,11.63
2023-04-21T06:23:02.208Z,10.90
2023-04-21T06:25:28.781Z,10.98
2023-04-21T06:27:55.351Z,11.63
2023-04-21T06:30:22.035Z,10.88
2023-04-21T06:32:49.996Z,10.60
2023-04-21T06:35:16.734Z,11.80
2023-04-21T06:37:43.348Z,11.57
2023-04-21T06:40:10.856Z,10.38
2023-04-21T06:42:37.666Z,11.18
2023-04-21T06:45:05.077Z,10.30
2023-04-21T06:47:31.689Z,11.48
2023-04-21T06:49:59.684Z,11.55
2023-04-21T06:52:26.324Z,11.10
2023-04-21T06:54:52.919Z,10.68
2023-04-21T06:57:19.492Z,10.10
2023-04-21T06:59:46.313Z,11.55
2023-04-21T07:02:13.139Z,10.90
2023-04-21T07:04:39.785Z,10.82
2023-04-21T07:07:08.208Z,10.40
2023-04-21T07:09:34.914Z,10.87
2023-04-21T07:12:01.613Z,11.05
2023-04-21T07:14:28.197Z,10.80
2023-04-21T07:16:54.954Z,10.55
2023-04-21T07:19:21.686Z,10.23
2023-04-21T07:21:48.424Z,9.73
2023-04-21T07:24:16.442Z,10.35
2023-04-21T07:26:43.028Z,10.55
2023-04-21T07:29:09.623Z,10.15
2023-04-21T07:31:36.474Z,9.73
2023-04-21T07:34:03.814Z,10.20
2023-04-21T07:36:31.247Z,9.65
2023-04-21T07:38:58.185Z,9.30
2023-04-21T07:41:26.133Z,9.80
2023-04-21T07:43:53.798Z,9.55
2023-04-21T07:46:20.562Z,9.63
2023-04-21T07:48:47.222Z,10.27
2023-04-21T07:51:13.794Z,9.38
2023-04-21T07:53:40.387Z,9.73
2023-04-21T07:56:07.096Z,9.75
2023-04-21T07:58:35.072Z,9.30
2023-04-21T08:01:01.607Z,9.50
2023-04-21T08:03:28.563Z,9.27
2023-04-21T08:05:55.509Z,10.07
2023-04-21T08:08:22.342Z,9.55
2023-04-21T08:10:48.985Z,10.17
2023-04-21T08:13:15.671Z,10.63
2023-04-21T08:15:43.700Z,10.25
2023-04-21T08:18:10.690Z,10.52
2023-04-21T08:20:37.380Z,10.63
2023-04-21T08:23:04.040Z,9.30
2023-04-21T08:25:30.661Z,10.32
2023-04-21T08:27:57.349Z,10.30
2023-04-21T08:30:24.208Z,10.48
2023-04-21T08:32:52.422Z,9.85
2023-04-21T08:35:19.233Z,10.13
2023-04-21T08:37:46.022Z,9.82
2023-04-21T08:40:12.960Z,10.25
2023-04-21T08:42:40.132Z,9.90
2023-04-21T08:45:08.099Z,9.90
2023-04-21T08:47:37.779Z,10.13
2023-04-21T08:50:07.576Z,10.15
2023-04-21T08:52:34.278Z,10.50
2023-04-21T08:55:01.421Z,9.43
2023-04-21T08:57:28.185Z,9.60
2023-04-21T08:59:54.785Z,9.93
2023-04-21T09:02:22.409Z,9.75
2023-04-21T09:04:51.193Z,9.88
2023-04-21T09:07:33.040Z,9.52
2023-04-21T09:10:00.477Z,10.90
2023-04-21T09:12:27.837Z,10.30
2023-04-21T09:14:54.471Z,10.15
2023-04-21T09:17:27.209Z,10.50
2023-04-21T09:19:53.820Z,9.85
2023-04-21T09:22:20.414Z,11.23
2023-04-21T09:24:49.152Z,10.70
2023-04-21T09:27:16.419Z,10.30
2023-04-21T09:29:46.344Z,10.88
2023-04-21T09:32:17.261Z,12.02
2023-04-21T09:34:44.029Z,12.02
2023-04-21T09:37:11.943Z,11.70
2023-04-21T09:39:49.662Z,11.75
2023-04-21T09:42:28.828Z,11.18
2023-04-21T09:45:06.124Z,11.05
2023-04-21T09:47:43.056Z,12.05
2023-04-21T09:50:13.047Z,11.50
2023-04-21T09:52:40.541Z,12.07
2023-04-21T09:55:11.794Z,12.80
2023-04-21T09:57:41.660Z,12.07
2023-04-21T10:00:10.185Z,12.07
2023-04-21T10:02:42.986Z,12.23
2023-04-21T10:05:11.295Z,11.80
2023-04-21T10:07:37.924Z,12.70
2023-04-21T10:10:08.143Z,12.52
2023-04-21T10:12:35.093Z,12.80
2023-04-21T10:15:05.800Z,11.90
2023-04-21T10:17:35.402Z,13.02
2023-04-21T10:20:06.892Z,13.18
2023-04-21T10:22:36.904Z,13.05
2023-04-21T10:25:08.348Z,12.00
2023-04-21T10:27:36.598Z,12.40
2023-04-21T10:33:04.556Z,12.48
2023-04-21T10:35:58.522Z,12.82
2023-04-21T10:38:34.591Z,12.25
2023-04-21T10:41:25.922Z,12.03
2023-04-21T10:43:52.509Z,12.13
2023-04-21T10:46:35.422Z,12.00
2023-04-21T10:49:08.138Z,13.13
2023-04-21T10:52:03.669Z,12.57
2023-04-21T10:54:37.049Z,12.80
2023-04-21T10:57:07.541Z,12.65
2023-04-21T10:59:35.741Z,12.27
2023-04-21T11:02:02.585Z,12.48
2023-04-21T11:04:31.610Z,12.77
2023-04-21T11:07:08.417Z,13.23
2023-04-21T11:09:35.394Z,14.02
2023-04-21T11:12:03.649Z,12.73
2023-04-21T11:14:30.999Z,12.88
2023-04-21T11:16:57.652Z,12.68
2023-04-21T11:19:24.313Z,12.07
2023-04-21T11:21:53.310Z,12.05
2023-04-21T11:24:21.219Z,13.45
2023-04-21T11:26:48.300Z,12.40
2023-04-21T11:29:15.628Z,12.82
2023-04-21T11:31:45.652Z,13.00
2023-04-21T11:34:12.316Z,13.07
2023-04-21T11:36:40.189Z,12.82
2023-04-21T11:39:09.337Z,12.00
2023-04-21T11:41:38.804Z,12.40
2023-04-21T11:44:05.719Z,12.63
2023-04-21T11:46:32.536Z,11.82
2023-04-21T11:49:00.666Z,12.82
2023-04-21T11:51:32.251Z,11.45
2023-04-21T11:53:59.045Z,10.60
2023-04-21T11:56:27.160Z,10.63
2023-04-21T11:58:54.049Z,10.48
2023-04-21T12:01:21.984Z,11.00
2023-04-21T12:03:52.789Z,11.55
2023-04-21T12:06:24.147Z,11.05
2023-04-21T12:08:55.189Z,10.70
2023-04-21T12:11:21.834Z,9.88
2023-04-21T12:13:49.881Z,10.60
2023-04-21T12:16:16.508Z,10.73
2023-04-21T12:18:43.164Z,9.82
2023-04-21T12:21:09.847Z,9.00
2023-04-21T12:23:36.397Z,8.43
2023-04-21T12:26:03.027Z,8.70
2023-04-21T12:28:29.932Z,8.02
2023-04-21T12:30:57.906Z,8.00
2023-04-21T12:33:24.892Z,8.03
2023-04-21T12:35:51.541Z,8.15
2023-04-21T12:38:18.177Z,7.97
2023-04-21T12:40:44.728Z,8.63
2023-04-21T12:43:11.343Z,8.45
2023-04-21T12:45:37.963Z,8.07
2023-04-21T12:48:06.108Z,7.43
2023-04-21T12:50:32.749Z,7.82
2023-04-21T12:52:59.642Z,7.68
2023-04-21T12:55:26.332Z,7.60
2023-04-21T12:57:52.932Z,8.07
2023-04-21T13:00:19.606Z,7.72
2023-04-21T13:02:46.452Z,6.88
2023-04-21T13:05:14.552Z,6.90
2023-04-21T13:07:41.196Z,7.32
2023-04-21T13:10:08.501Z,7.60
2023-04-21T13:12:35.194Z,7.50
2023-04-21T13:15:01.867Z,6.70
2023-04-21T13:17:28.744Z,6.05
2023-04-21T13:19:55.443Z,6.90
2023-04-21T13:22:23.880Z,6.83
2023-04-21T13:24:50.464Z,6.22
2023-04-21T13:27:17.297Z,6.28
2023-04-21T13:29:43.861Z,5.78
2023-04-21T13:32:10.515Z,6.03
2023-04-21T13:34:37.168Z,6.70
2023-04-21T13:37:03.789Z,5.63
2023-04-21T13:39:32.072Z,5.65
2023-04-21T13:41:58.927Z,5.43
2023-04-21T13:44:25.747Z,5.85
2023-04-21T13:46:52.603Z,5.87
2023-04-21T13:49:19.459Z,6.03
2023-04-21T13:51:46.153Z,5.57
2023-04-21T13:54:12.692Z,5.90
2023-04-21T13:56:40.737Z,5.30
2023-04-21T13:59:07.342Z,5.20
2023-04-21T14:01:33.978Z,5.18
2023-04-21T14:04:00.728Z,4.88
2023-04-21T14:06:27.913Z,5.70
2023-04-21T14:08:55.000Z,5.22
2023-04-21T14:11:21.575Z,5.07
2023-04-21T14:14:04.865Z,5.35
2023-04-21T14:16:35.415Z,4.63
2023-04-21T14:19:02.101Z,5.30
2023-04-21T14:21:28.757Z,4.68
2023-04-21T14:23:55.368Z,4.73
2023-04-21T14:26:21.993Z,4.40
2023-04-21T14:28:50.565Z,3.92
2023-04-21T14:31:18.016Z,3.85
2023-04-21T14:33:45.728Z,4.30
2023-04-21T14:36:12.363Z,4.00
2023-04-21T14:38:38.989Z,4.03
2023-04-21T14:41:05.663Z,3.78
2023-04-21T14:43:32.683Z,4.05
2023-04-21T14:46:00.789Z,3.90
2023-04-21T14:48:27.575Z,3.60
2023-04-21T14:50:54.797Z,3.35
2023-04-21T14:53:22.372Z,3.30
2023-04-21T14:55:49.013Z,3.80
2023-04-21T14:58:15.664Z,3.55
2023-04-21T15:00:42.404Z,3.90
2023-04-21T15:03:10.512Z,4.07
2023-04-21T15:05:37.629Z,4.05
2023-04-21T15:08:04.552Z,3.70
2023-04-21T15:10:31.255Z,3.92
2023-04-21T15:12:58.070Z,4.20
2023-04-21T15:15:24.649Z,4.07
2023-04-21T15:17:51.392Z,3.95
2023-04-21T15:20:22.631Z,3.80
2023-04-21T15:22:56.268Z,3.78
2023-04-21T15:25:22.912Z,3.93
2023-04-21T15:27:49.688Z,3.85
2023-04-21T15:30:16.499Z,4.35
2023-04-21T15:32:43.128Z,4.20
2023-04-21T15:35:10.074Z,4.15
2023-04-21T15:37:37.989Z,4.20
2023-04-21T15:40:05.888Z,4.00
2023-04-21T15:42:32.467Z,3.63
2023-04-21T15:44:59.009Z,3.92
2023-04-21T15:47:25.665Z,4.03
2023-04-21T15:49:52.419Z,3.83
2023-04-21T15:52:19.071Z,3.38
2023-04-21T15:54:47.029Z,3.70
2023-04-21T15:57:14.120Z,3.53
2023-04-21T15:59:40.701Z,3.65
2023-04-21T16:02:07.578Z,3.83
2023-04-21T16:04:34.503Z,3.53
2023-04-21T16:07:01.354Z,3.63
2023-04-21T16:09:28.026Z,3.58
2023-04-21T16:11:56.150Z,3.60
2023-04-21T16:14:22.776Z,3.50
2023-04-21T16:16:49.394Z,3.60
2023-04-21T16:19:16.498Z,3.03
2023-04-21T16:21:43.382Z,3.05
2023-04-21T16:24:10.209Z,3.40
2023-04-21T16:26:37.141Z,3.80
2023-04-21T16:29:05.319Z,2.97
2023-04-21T16:31:32.076Z,2.70
2023-04-21T16:33:58.861Z,3.35
2023-04-21T16:36:26.310Z,3.20
2023-04-21T16:38:52.888Z,3.13
2023-04-21T16:41:21.028Z,3.10
2023-04-21T16:43:47.937Z,2.78
2023-04-21T16:46:16.129Z,3.05
2023-04-21T16:48:42.790Z,2.75
2023-04-21T16:51:09.540Z,3.00
2023-04-21T16:53:36.817Z,2.80
2023-04-21T16:56:05.096Z,3.10
2023-04-21T16:58:31.660Z,2.90
2023-04-21T17:00:58.311Z,3.03
2023-04-21T17:03:26.571Z,3.07
2023-04-21T17:05:53.344Z,3.13
2023-04-21T17:08:20.044Z,2.70
2023-04-21T17:10:46.607Z,3.30
2023-04-21T17:13:13.203Z,3.10
2023-04-21T17:15:40.197Z,3.00
2023-04-21T17:18:06.941Z,3.00
2023-04-21T17:20:35.000Z,2.60
2023-04-21T17:23:01.597Z,2.95
2023-04-21T17:25:28.274Z,2.90
2023-04-21T17:27:54.977Z,3.17
2023-04-21T17:30:21.559Z,3.00
2023-04-21T17:32:48.155Z,3.40
2023-04-21T17:35:14.849Z,3.70
2023-04-21T17:37:42.829Z,3.78
2023-04-21T17:40:10.974Z,3.23
2023-04-21T17:42:37.678Z,3.08
2023-04-21T17:45:05.056Z,3.05
2023-04-21T17:47:31.652Z,3.08
2023-04-21T17:49:58.821Z,3.17
2023-04-21T17:52:25.395Z,3.13
2023-04-21T17:54:53.502Z,3.15
2023-04-21T17:57:20.115Z,3.00
2023-04-21T17:59:46.658Z,3.20
2023-04-21T18:02:13.541Z,3.10
2023-04-21T18:04:40.629Z,3.20
2023-04-21T18:07:07.554Z,3.25
2023-04-21T18:09:34.110Z,3.55
2023-04-21T18:12:02.145Z,4.15
2023-04-21T18:14:29.104Z,4.30
2023-04-21T18:16:55.714Z,3.20
2023-04-21T18:19:22.461Z,3.55
2023-04-21T18:21:49.146Z,3.08
2023-04-21T18:24:15.852Z,3.45
2023-04-21T18:26:43.837Z,3.95
2023-04-21T18:29:11.769Z,3.70
2023-04-21T18:31:38.505Z,3.60
2023-04-21T18:34:05.427Z,8.55
2023-04-21T18:36:33.423Z,4.32
2023-04-21T18:39:01.004Z,3.38
2023-04-21T18:41:27.702Z,3.60
2023-04-21T18:43:54.388Z,4.38
2023-04-21T18:46:22.985Z,5.80
2023-04-21T18:48:49.554Z,5.03
2023-04-21T18:51:16.625Z,6.10
2023-04-21T18:53:43.407Z,4.30
2023-04-21T18:56:10.242Z,4.15
2023-04-21T18:58:36.838Z,3.80
2023-04-21T19:01:03.757Z,3.80
2023-04-21T19:03:32.084Z,3.15
2023-04-21T19:05:58.842Z,2.53
2023-04-21T19:08:40.697Z,2.40
2023-04-21T19:11:08.727Z,2.63
2023-04-21T19:13:35.548Z,2.58
2023-04-21T19:16:02.276Z,2.38
2023-04-21T19:18:28.996Z,2.67
2023-04-21T19:20:59.341Z,2.67
2023-04-21T19:23:25.995Z,2.80
2023-04-21T19:25:52.823Z,8.52
2023-04-21T19:28:19.541Z,2.90
2023-04-21T19:30:46.159Z,2.60
2023-04-21T19:33:12.961Z,2.25
2023-04-21T19:35:39.685Z,2.33
2023-04-21T19:38:07.779Z,1.40
2023-04-21T19:40:34.631Z,1.90
2023-04-21T19:43:01.294Z,1.90
2023-04-21T19:45:27.971Z,1.60
2023-04-21T19:47:54.631Z,2.80
2023-04-21T19:50:21.289Z,2.50
2023-04-21T19:52:47.875Z,1.50
2023-04-21T19:55:16.115Z,1.20
2023-04-21T19:57:42.828Z,1.60
2023-04-21T20:00:10.558Z,1.50
2023-04-21T20:02:37.363Z,1.40
2023-04-21T20:05:04.847Z,1.13
2023-04-21T20:07:31.531Z,1.40
2023-04-21T20:09:58.119Z,1.35
2023-04-21T20:12:26.120Z,1.50
2023-04-21T20:14:52.651Z,1.40
2023-04-21T20:17:19.453Z,1.88
2023-04-21T20:19:46.008Z,1.70
2023-04-21T20:22:12.734Z,2.03
2023-04-21T20:24:39.287Z,1.45
2023-04-21T20:27:08.664Z,1.65
2023-04-21T20:29:37.123Z,1.90
2023-04-21T20:32:03.987Z,2.00
2023-04-21T20:34:30.583Z,2.00
2023-04-21T20:36:57.183Z,1.85
2023-04-21T20:39:23.823Z,1.73
2023-04-21T20:42:00.974Z,1.63
2023-04-21T20:44:37.056Z,1.70
2023-04-21T20:47:03.736Z,2.22
2023-04-21T20:49:30.332Z,1.83
2023-04-21T20:51:57.417Z,1.80
2023-04-21T20:54:24.222Z,1.90
2023-04-21T20:56:50.864Z,2.00
2023-04-21T20:59:17.574Z,1.77
2023-04-21T21:01:45.550Z,1.92
2023-04-21T21:04:12.780Z,1.80
2023-04-21T21:06:39.435Z,1.90
2023-04-21T21:09:06.193Z,2.40
2023-04-21T21:11:32.761Z,2.10
2023-04-21T21:13:59.345Z,2.20
2023-04-21T21:16:25.982Z,2.17
2023-04-21T21:18:53.954Z,2.25
2023-04-21T21:21:20.506Z,2.10
2023-04-21T21:23:47.092Z,1.83
2023-04-21T21:26:14.313Z,2.10
2023-04-21T21:28:40.865Z,2.00
2023-04-21T21:31:07.614Z,2.20
2023-04-21T21:33:34.305Z,2.30
2023-04-21T21:36:02.314Z,2.20
2023-04-21T21:38:28.910Z,2.30
2023-04-21T21:40:55.459Z,2.20
2023-04-21T21:43:21.985Z,2.28
2023-04-21T21:45:48.674Z,2.40
2023-04-21T21:48:15.531Z,2.40
2023-04-21T21:50:42.200Z,2.70
2023-04-21T21:53:10.398Z,2.60
2023-04-21T21:55:36.978Z,2.65
2023-04-21T21:58:03.742Z,2.40
2023-04-21T22:00:30.680Z,2.10
2023-04-21T22:02:59.610Z,2.30
2023-04-21T22:05:26.251Z,2.40
2023-04-21T22:07:52.949Z,2.47
2023-04-21T22:10:20.847Z,2.40
2023-04-21T22:12:47.566Z,2.50
2023-04-21T22:15:14.171Z,2.13
2023-04-21T22:17:40.827Z,2.33
2023-04-21T22:20:08.419Z,2.35
2023-04-21T22:22:35.326Z,2.43
2023-04-21T22:25:01.955Z,2.30
2023-04-21T22:27:29.910Z,2.50
2023-04-21T22:29:56.543Z,2.50
2023-04-21T22:32:23.140Z,2.88
2023-04-21T22:34:49.680Z,2.87
2023-04-21T22:37:16.142Z,2.97
2023-04-21T22:39:42.720Z,3.20
2023-04-21T22:42:09.377Z,2.70
2023-04-21T22:44:37.320Z,2.90
2023-04-21T22:47:04.123Z,2.90
2023-04-21T22:49:33.421Z,3.80
2023-04-21T22:51:59.993Z,3.30
2023-04-21T22:54:26.544Z,3.80
2023-04-21T22:56:53.419Z,3.63
2023-04-21T22:59:19.969Z,3.80
2023-04-21T23:01:48.052Z,3.55
2023-04-21T23:04:14.648Z,4.28
2023-04-21T23:06:41.219Z,3.85
2023-04-21T23:09:07.816Z,3.22
2023-04-21T23:11:34.382Z,3.50
2023-04-21T23:14:00.932Z,3.42
2023-04-21T23:16:27.527Z,3.47
2023-04-21T23:18:55.845Z,3.88
2023-04-21T23:21:22.601Z,3.60
2023-04-21T23:23:49.185Z,3.57
2023-04-21T23:26:15.955Z,3.30
2023-04-21T23:28:42.548Z,3.30
2023-04-21T23:31:09.096Z,3.53
2023-04-21T23:33:35.726Z,3.45
2023-04-21T23:36:03.771Z,3.60
2023-04-21T23:38:31.452Z,3.97
2023-04-21T23:40:58.288Z,3.47
2023-04-21T23:43:24.997Z,3.67
2023-04-21T23:45:51.702Z,3.20
2023-04-21T23:48:18.294Z,3.33
2023-04-21T23:50:45.359Z,3.28
2023-04-21T23:53:13.415Z,3.70
2023-04-21T23:55:39.994Z,3.78
2023-04-21T23:58:06.666Z,3.67
